Time;durP1;ratioP1;P1;durP2;ratioP2;P2;SDS_P1;SDS_P2;PMS_P1;PMS_P2;Temp;Humidity;BMP_temperature;BMP_pressure;BME280_temperature;BME280_humidity;BME280_pressure;Samples;Min_cycle;Max_cycle;Signal;HPM_P1;HPM_P2
2021/10/05 00:01:32;;;;;;;;;;;;;;;21.80;32.62;98748.06;4866853;29;904;-79
2021/10/05 00:03:58;;;;;;;;;;;;;;;21.79;32.56;98752.16;4866263;29;963;-79
2021/10/05 00:06:23;;;;;;;;;;;;;;;21.73;32.48;98742.53;4869110;29;609;-79
2021/10/05 00:08:49;;;;;;;;;;;;;;;21.90;32.34;98746.31;4870549;29;1915;-79
2021/10/05 00:11:14;;;;;;;;;;;;;;;21.79;32.55;98742.84;4870516;29;676;-79
2021/10/05 00:13:40;;;;;;;;;;;;;;;21.71;32.76;98750.66;4870289;29;1035;-80
2021/10/05 00:16:06;;;;;;;;;;;;;;;21.61;32.73;98745.97;4870487;29;1181;-80
2021/10/05 00:18:31;;;;;;;;;;;;;;;21.74;32.76;98732.00;4870414;29;861;-79
2021/10/05 00:20:57;;;;;;;;;;;;;;;21.72;32.78;98735.28;4870450;29;700;-80
2021/10/05 00:23:22;;;;;;;;;;;;;;;21.88;32.15;98736.66;4870453;29;613;-79
2021/10/05 00:25:48;;;;;;;;;;;;;;;21.75;32.59;98740.06;4870438;29;692;-79
2021/10/05 00:28:13;;;;;;;;;;;;;;;21.70;32.57;98732.06;4869950;29;1906;-79
2021/10/05 00:30:39;;;;;;;;;;;;;;;21.76;32.54;98741.69;4869913;29;862;-79
2021/10/05 00:33:04;;;;;;;;;;;;;;;21.83;32.48;98738.72;4870139;29;1005;-80
2021/10/05 00:35:30;;;;;;;;;;;;;;;21.73;32.35;98736.88;4870291;29;708;-79
2021/10/05 00:37:55;;;;;;;;;;;;;;;21.73;32.20;98733.25;4869460;29;693;-79
2021/10/05 00:40:21;;;;;;;;;;;;;;;21.87;32.22;98740.72;4870099;29;672;-79
2021/10/05 00:42:46;;;;;;;;;;;;;;;21.77;32.47;98737.63;4868659;29;1017;-80
2021/10/05 00:45:11;;;;;;;;;;;;;;;22.20;32.69;98731.25;4869799;29;920;-79
2021/10/05 00:47:37;;;;;;;;;;;;;;;22.26;33.51;98728.72;4869901;29;1907;-79
2021/10/05 00:50:02;;;;;;;;;;;;;;;22.49;33.42;98734.41;4869744;29;602;-79
2021/10/05 00:52:28;;;;;;;;;;;;;;;22.17;33.38;98731.31;4869992;29;715;-79
2021/10/05 00:54:53;;;;;;;;;;;;;;;22.05;32.91;98725.00;4870058;29;716;-79
2021/10/05 00:57:21;;;;;;;;;;;;;;;22.03;32.80;98721.81;4869534;29;833;-79
2021/10/05 00:59:47;;;;;;;;;;;;;;;21.91;32.59;98727.28;4869449;29;995;-79
2021/10/05 01:02:13;;;;;;;;;;;;;;;21.85;32.95;98722.09;4869953;29;908;-79
2021/10/05 01:04:39;;;;;;;;;;;;;;;21.89;32.78;98727.72;4868614;29;797;-80
2021/10/05 01:07:07;;;;;;;;;;;;;;;21.89;32.61;98721.25;4869741;29;1980;-79
2021/10/05 01:09:33;;;;;;;;;;;;;;;21.78;32.79;98722.22;4869639;29;655;-79
2021/10/05 01:11:58;;;;;;;;;;;;;;;21.91;32.55;98721.59;4869463;29;980;-79
2021/10/05 01:14:23;;;;;;;;;;;;;;;21.95;32.72;98716.69;4867859;29;972;-79
2021/10/05 01:16:49;;;;;;;;;;;;;;;21.89;32.80;98721.25;4869170;29;922;-80
2021/10/05 01:19:15;;;;;;;;;;;;;;;21.87;32.61;98718.06;4869472;29;696;-80
2021/10/05 01:21:41;;;;;;;;;;;;;;;21.97;32.50;98708.56;4869347;29;609;-80
2021/10/05 01:24:13;;;;;;;;;;;;;;;21.81;32.75;98710.03;4869266;29;752;-79
2021/10/05 01:26:38;;;;;;;;;;;;;;;21.89;32.28;98715.59;4869076;29;990;-79
2021/10/05 01:29:04;;;;;;;;;;;;;;;21.80;32.69;98714.09;4867849;29;1980;-79
2021/10/05 01:31:30;;;;;;;;;;;;;;;21.79;32.51;98712.50;4869268;29;984;-79
2021/10/05 01:33:56;;;;;;;;;;;;;;;21.88;32.54;98711.16;4868579;29;629;-79
2021/10/05 01:36:21;;;;;;;;;;;;;;;21.87;32.47;98724.53;4868304;29;861;-79
2021/10/05 01:38:47;;;;;;;;;;;;;;;21.76;32.78;98713.38;4869020;29;656;-80
2021/10/05 01:41:12;;;;;;;;;;;;;;;21.74;32.76;98715.00;4868859;29;943;-79
2021/10/05 01:43:38;;;;;;;;;;;;;;;21.72;32.42;98715.44;4868716;29;920;-79
2021/10/05 01:46:04;;;;;;;;;;;;;;;21.94;31.84;98713.06;4868221;29;1052;-79
2021/10/05 01:48:29;;;;;;;;;;;;;;;21.74;32.40;98715.81;4868885;29;1899;-79
2021/10/05 01:50:55;;;;;;;;;;;;;;;21.91;32.28;98718.78;4868833;29;682;-79
2021/10/05 01:53:20;;;;;;;;;;;;;;;21.68;32.34;98717.53;4868892;29;720;-79
2021/10/05 01:55:45;;;;;;;;;;;;;;;21.72;32.31;98714.66;4868785;29;704;-79
2021/10/05 01:58:11;;;;;;;;;;;;;;;21.74;32.13;98717.84;4868418;29;947;-79
2021/10/05 02:00:36;;;;;;;;;;;;;;;21.72;32.48;98718.28;4868399;29;908;-80
2021/10/05 02:03:02;;;;;;;;;;;;;;;21.94;32.91;98720.75;4868933;29;1057;-79
2021/10/05 02:05:27;;;;;;;;;;;;;;;22.25;33.27;98730.78;4868658;29;689;-79
2021/10/05 02:07:52;;;;;;;;;;;;;;;22.33;33.45;98715.25;4867897;29;1903;-79
2021/10/05 02:10:18;;;;;;;;;;;;;;;22.43;33.51;98710.59;4868537;29;620;-79
2021/10/05 02:12:43;;;;;;;;;;;;;;;22.10;33.22;98709.56;4867222;29;1115;-79
2021/10/05 02:15:09;;;;;;;;;;;;;;;22.01;33.08;98706.47;4868038;29;1202;-79
2021/10/05 02:17:34;;;;;;;;;;;;;;;21.85;32.81;98705.09;4867693;29;1095;-79
2021/10/05 02:20:00;;;;;;;;;;;;;;;21.82;32.92;98705.97;4868436;29;719;-80
2021/10/05 02:22:25;;;;;;;;;;;;;;;21.85;32.88;98698.63;4868208;29;613;-80
2021/10/05 02:24:51;;;;;;;;;;;;;;;21.75;33.11;98708.09;4867258;29;886;-79
2021/10/05 02:27:17;;;;;;;;;;;;;;;21.80;33.16;98702.75;4867876;29;1899;-79
2021/10/05 02:29:43;;;;;;;;;;;;;;;21.81;33.23;98710.03;4867658;29;909;-79
2021/10/05 02:32:08;;;;;;;;;;;;;;;21.79;33.06;98712.50;4867273;29;870;-80
2021/10/05 02:34:34;;;;;;;;;;;;;;;21.81;33.08;98710.03;4867238;29;944;-79
2021/10/05 02:36:59;;;;;;;;;;;;;;;21.83;33.12;98710.41;4867986;29;661;-80
2021/10/05 02:39:25;;;;;;;;;;;;;;;21.65;33.36;98715.53;4867744;29;922;-79
2021/10/05 02:41:50;;;;;;;;;;;;;;;21.66;32.98;98705.84;4867662;29;952;-79
2021/10/05 02:44:16;;;;;;;;;;;;;;;21.90;32.69;98705.84;4866959;29;940;-79
2021/10/05 02:46:41;;;;;;;;;;;;;;;21.80;32.69;98708.41;4867275;29;712;-79
2021/10/05 02:49:06;;;;;;;;;;;;;;;21.78;32.86;98716.56;4867772;29;1911;-79
2021/10/05 02:51:32;;;;;;;;;;;;;;;21.73;32.86;98711.38;4867689;29;617;-80
2021/10/05 02:53:57;;;;;;;;;;;;;;;21.69;32.64;98710.63;4866924;29;847;-79
2021/10/05 02:56:23;;;;;;;;;;;;;;;21.68;33.05;98706.19;4866454;29;839;-79
2021/10/05 02:58:48;;;;;;;;;;;;;;;21.81;32.40;98710.03;4867425;29;849;-79
2021/10/05 03:01:14;;;;;;;;;;;;;;;21.81;32.61;98718.53;4867656;29;945;-79
2021/10/05 03:03:39;;;;;;;;;;;;;;;21.87;32.36;98723.72;4867763;29;613;-79
2021/10/05 03:06:05;;;;;;;;;;;;;;;21.79;32.70;98718.16;4866580;29;754;-79
2021/10/05 03:08:30;;;;;;;;;;;;;;;21.81;32.56;98717.72;4867561;29;1899;-79
2021/10/05 03:10:56;;;;;;;;;;;;;;;21.69;32.51;98713.47;4867347;29;914;-79
2021/10/05 03:13:22;;;;;;;;;;;;;;;21.69;32.68;98724.78;4867331;29;861;-79
2021/10/05 03:15:47;;;;;;;;;;;;;;;21.76;32.40;98713.38;4867459;29;1111;-79
2021/10/05 03:18:13;;;;;;;;;;;;;;;21.90;31.94;98728.50;4867536;29;668;-79
2021/10/05 03:20:38;;;;;;;;;;;;;;;21.89;32.01;98718.41;4867499;29;645;-79
2021/10/05 03:23:04;;;;;;;;;;;;;;;21.78;31.76;98722.22;4867178;29;979;-79
2021/10/05 03:25:29;;;;;;;;;;;;;;;21.68;31.80;98723.19;4867509;29;984;-80
2021/10/05 03:31:13;;;;;;;;;;;;;;;21.73;32.92;98725.53;4867638;29;637;-80
2021/10/05 03:33:39;;;;;;;;;;;;;;;22.06;32.89;98725.81;4867535;29;687;-79
2021/10/05 03:36:05;;;;;;;;;;;;;;;22.26;32.73;98726.69;4867430;29;667;-79
2021/10/05 03:38:30;;;;;;;;;;;;;;;22.37;32.88;98735.00;4867064;29;966;-79
2021/10/05 03:40:56;;;;;;;;;;;;;;;22.39;32.87;98734.59;4869976;29;881;-79
2021/10/05 03:43:22;;;;;;;;;;;;;;;22.18;32.64;98728.06;4871132;29;1049;-80
2021/10/05 03:45:47;;;;;;;;;;;;;;;21.91;32.85;98721.59;4870766;29;904;-79
2021/10/05 03:48:13;;;;;;;;;;;;;;;21.82;32.90;98728.63;4870762;29;1899;-79
2021/10/05 03:50:39;;;;;;;;;;;;;;;21.83;33.02;98727.41;4870943;29;652;-79
2021/10/05 03:53:05;;;;;;;;;;;;;;;21.80;33.11;98731.09;4869947;29;975;-79
2021/10/05 03:58:48;;;;;;;;;;;;;;;21.76;32.77;98719.03;4868628;29;1060;-79
2021/10/05 04:01:13;;;;;;;;;;;;;;;21.75;32.98;98728.72;4870929;29;672;-79
2021/10/05 04:03:39;;;;;;;;;;;;;;;21.74;32.76;98727.13;4870747;29;649;-80
2021/10/05 04:06:05;;;;;;;;;;;;;;;21.83;32.77;98735.91;4870805;29;609;-79
2021/10/05 04:08:30;;;;;;;;;;;;;;;21.82;32.67;98739.97;4869285;29;1891;-79
2021/10/05 04:10:56;;;;;;;;;;;;;;;21.79;32.67;98740.00;4870419;29;916;-79
2021/10/05 04:13:22;;;;;;;;;;;;;;;21.76;32.64;98744.53;4870467;29;1005;-79
2021/10/05 04:15:47;;;;;;;;;;;;;;;22.02;33.65;98747.72;4870358;29;972;-79
2021/10/05 04:18:13;;;;;;;;;;;;;;;22.25;33.85;98750.63;4870386;29;680;-78
2021/10/05 04:20:38;;;;;;;;;;;;;;;22.38;33.62;98756.47;4869479;29;926;-79
2021/10/05 04:23:04;;;;;;;;;;;;;;;22.28;33.19;98754.63;4870131;29;1020;-79
2021/10/05 04:25:29;;;;;;;;;;;;;;;21.98;33.22;98747.00;4868857;29;935;-79
2021/10/05 04:27:54;;;;;;;;;;;;;;;21.84;33.53;98751.66;4869083;29;1912;-79
2021/10/05 04:30:20;;;;;;;;;;;;;;;21.83;33.23;98758.56;4869234;29;864;-79
2021/10/05 04:32:45;;;;;;;;;;;;;;;21.72;33.65;98763.59;4870261;29;668;-79
2021/10/05 04:35:11;;;;;;;;;;;;;;;21.76;33.65;98758.69;4870175;29;656;-79
2021/10/05 04:37:36;;;;;;;;;;;;;;;21.78;33.34;98766.75;4869901;29;1057;-79
2021/10/05 04:40:03;;;;;;;;;;;;;;;21.70;33.59;98765.25;4869621;29;892;-79
2021/10/05 04:42:28;;;;;;;;;;;;;;;21.84;33.45;98765.81;4869403;29;977;-79
2021/10/05 04:44:53;;;;;;;;;;;;;;;21.87;33.27;98764.19;4869315;29;697;-79
2021/10/05 04:47:19;;;;;;;;;;;;;;;21.73;33.57;98759.53;4869878;29;1970;-79
2021/10/05 04:49:44;;;;;;;;;;;;;;;21.80;33.10;98765.06;4869911;29;637;-79
2021/10/05 04:52:10;;;;;;;;;;;;;;;21.69;33.49;98764.44;4869026;29;885;-79
2021/10/05 04:54:36;;;;;;;;;;;;;;;21.71;33.33;98767.66;4869422;29;844;-79
2021/10/05 04:57:01;;;;;;;;;;;;;;;21.81;33.11;98780.03;4869700;29;1089;-80
2021/10/05 04:59:28;;;;;;;;;;;;;;;21.72;33.33;98774.94;4869712;29;677;-79
2021/10/05 05:01:54;;;;;;;;;;;;;;;21.71;33.42;98783.84;4869734;29;689;-79
2021/10/05 05:04:19;;;;;;;;;;;;;;;21.75;33.29;98779.72;4869466;29;625;-80
2021/10/05 05:06:45;;;;;;;;;;;;;;;21.81;32.92;98792.19;4869597;29;701;-79
2021/10/05 05:09:10;;;;;;;;;;;;;;;21.76;32.83;98792.69;4869143;29;1892;-78
2021/10/05 05:11:36;;;;;;;;;;;;;;;21.73;33.02;98793.53;4868707;29;1285;-79
2021/10/05 05:14:07;;;;;;;;;;;;;;;21.72;32.82;98779.78;4868995;29;1269;-80
2021/10/05 05:16:33;;;;;;;;;;;;;;;21.78;32.84;98795.88;4869444;29;1214;-78
2021/10/05 05:18:58;;;;;;;;;;;;;;;21.84;32.76;98805.50;4869386;29;691;-78
2021/10/05 05:21:24;;;;;;;;;;;;;;;21.74;32.98;98794.31;4869334;29;668;-77
2021/10/05 05:23:50;;;;;;;;;;;;;;;21.75;32.45;98793.88;4869225;29;651;-77
2021/10/05 05:26:15;;;;;;;;;;;;;;;21.90;32.54;98788.00;4869238;29;1225;-77
2021/10/05 05:28:41;;;;;;;;;;;;;;;21.83;32.49;98798.22;4868946;29;1907;-78
2021/10/05 05:31:06;;;;;;;;;;;;;;;21.85;32.54;98781.59;4869184;29;925;-78
2021/10/05 05:33:32;;;;;;;;;;;;;;;21.72;32.52;98794.75;4869209;29;684;-78
2021/10/05 05:35:57;;;;;;;;;;;;;;;21.71;32.50;98795.16;4869338;29;704;-77
2021/10/05 05:38:23;;;;;;;;;;;;;;;21.66;32.08;98796.47;4869024;29;684;-78
2021/10/05 05:40:49;;;;;;;;;;;;;;;21.54;32.66;98802.69;4860245;29;1052;-73
2021/10/05 05:43:15;;;;;;;;;;;;;;;21.69;32.37;98801.25;4850528;29;752;-74
2021/10/05 05:45:40;;;;;;;;;;;;;;;21.79;32.53;98803.13;4850676;29;817;-76
2021/10/05 05:48:06;;;;;;;;;;;;;;;21.72;32.60;98806.09;4850427;29;1923;-73
2021/10/05 05:50:31;;;;;;;;;;;;;;;21.75;32.57;98808.03;4850387;29;669;-74
2021/10/05 05:52:56;;;;;;;;;;;;;;;21.89;32.60;98811.91;5036624;23;3679;-78
2021/10/05 05:55:23;;;;;;;;;;;;;;;22.04;32.39;98818.97;4912388;29;960;-80
2021/10/05 05:57:50;;;;;;;;;;;;;;;21.95;33.07;98822.31;4905277;29;971;-74
2021/10/05 06:00:16;;;;;;;;;;;;;;;21.89;33.41;98828.91;4906291;29;639;-78
2021/10/05 06:02:41;;;;;;;;;;;;;;;21.96;33.39;98820.28;4905791;29;622;-75
2021/10/05 06:06:38;;;;;;;;;;;;;;;22.04;33.37;98836.78;5139341;27;1196;-78
2021/10/05 06:09:03;;;;;;;;;;;;;;;22.04;33.48;98830.31;5136934;28;906;-80
2021/10/05 06:11:32;;;;;;;;;;;;;;;22.13;33.24;98839.09;5138584;28;918;-79
2021/10/05 06:13:57;;;;;;;;;;;;;;;21.03;35.32;98841.28;5138445;28;649;-74
2021/10/05 06:16:23;;;;;;;;;;;;;;;22.03;34.66;98845.72;5138702;28;724;-74
2021/10/05 06:18:48;;;;;;;;;;;;;;;22.06;35.31;98844.84;5138281;28;641;-75
2021/10/05 06:21:13;;;;;;;;;;;;;;;21.80;36.37;98855.72;5137808;27;934;-75
2021/10/05 06:23:39;;;;;;;;;;;;;;;22.08;35.64;98848.84;5137886;28;866;-75
2021/10/05 06:26:05;;;;;;;;;;;;;;;22.26;35.85;98844.97;5138461;28;1914;-75
2021/10/05 06:28:30;;;;;;;;;;;;;;;22.04;36.33;98847.31;5138236;28;602;-75
2021/10/05 06:30:56;;;;;;;;;;;;;;;22.00;36.40;98841.69;5137423;28;1004;-75
2021/10/05 06:33:21;;;;;;;;;;;;;;;22.26;35.89;98845.78;5138031;28;673;-75
2021/10/05 06:35:47;;;;;;;;;;;;;;;22.16;36.10;98852.41;5138016;28;876;-75
2021/10/05 06:38:13;;;;;;;;;;;;;;;22.09;36.00;98858.16;5137874;28;936;-76
2021/10/05 06:40:39;;;;;;;;;;;;;;;22.08;36.46;98848.06;5138184;27;1090;-75
2021/10/05 06:45:53;;;;;;;;;;;;;;;22.19;36.06;98862.91;5479722;22;2123;-79
2021/10/05 06:48:19;;;;;;;;;;;;;;;22.16;35.94;98860.91;5051026;28;1127;-79
2021/10/05 06:50:44;;;;;;;;;;;;;;;22.12;36.05;98850.84;5017609;28;928;-78
2021/10/05 06:53:15;;;;;;;;;;;;;;;21.55;36.36;98860.91;5050457;28;822;-78
2021/10/05 06:55:41;;;;;;;;;;;;;;;21.13;36.59;98874.31;5030451;28;958;-79
2021/10/05 06:58:06;;;;;;;;;;;;;;;21.62;36.62;98866.50;4991279;28;1006;-79
2021/10/05 07:00:31;;;;;;;;;;;;;;;21.85;36.27;98872.25;4971470;28;897;-79
2021/10/05 07:05:25;;;;;;;;;;;;;;;22.30;35.19;98874.06;5070333;28;1885;-70
2021/10/05 07:07:51;;;;;;;;;;;;;;;22.19;35.10;98887.63;5071562;28;1171;-70
2021/10/05 07:10:17;;;;;;;;;;;;;;;22.26;34.32;98876.94;5071376;28;1171;-71
2021/10/05 07:12:43;;;;;;;;;;;;;;;22.31;33.72;98884.97;5064964;28;1210;-71
2021/10/05 07:15:08;;;;;;;;;;;;;;;22.40;33.17;98875.94;5085672;28;1264;-72
2021/10/05 07:17:34;;;;;;;;;;;;;;;22.39;33.48;98879.22;5039225;28;1294;-71
2021/10/05 07:19:59;;;;;;;;;;;;;;;22.43;33.41;98880.72;5067967;28;1273;-72
2021/10/05 07:22:25;;;;;;;;;;;;;;;22.36;33.47;98875.97;5069402;28;1309;-72
2021/10/05 07:24:50;;;;;;;;;;;;;;;22.27;33.47;98875.72;5067473;28;1902;-74
2021/10/05 07:27:16;;;;;;;;;;;;;;;22.27;33.40;98872.09;5068592;28;1277;-71
2021/10/05 07:36:04;;;;;;;;;;;;;;;22.29;33.27;98881.78;5093228;27;1200;-71
2021/10/05 07:40:48;;;;;;;;;;;;;;;22.42;33.23;98873.47;5113982;27;1267;-70
2021/10/05 07:45:24;;;;;;;;;;;;;;;22.41;33.06;98888.06;5113447;27;1089;-70
2021/10/05 07:47:49;;;;;;;;;;;;;;;22.46;33.28;98885.56;5131363;22;2228;-80
2021/10/05 07:50:15;;;;;;;;;;;;;;;22.43;32.94;98894.13;5050765;28;2493;-75
2021/10/05 08:06:08;;;;;;;;;;;;;;;23.21;31.28;98883.44;5093362;27;1424;-73
2021/10/05 08:08:33;;;;;;;;;;;;;;;23.18;31.36;98879.47;5147539;22;1875;-76
2021/10/05 08:10:59;;;;;;;;;;;;;;;23.11;31.19;98871.09;5061525;28;1445;-74
2021/10/05 08:14:12;;;;;;;;;;;;;;;23.19;31.51;98881.06;5093387;27;1383;-76
2021/10/05 08:16:38;;;;;;;;;;;;;;;23.08;31.18;98874.78;5083081;28;1447;-73
2021/10/05 08:19:03;;;;;;;;;;;;;;;23.25;31.77;98882.16;5079870;28;1446;-73
2021/10/05 08:21:32;;;;;;;;;;;;;;;23.46;30.69;98871.59;5081816;28;1492;-75
2021/10/05 08:23:58;;;;;;;;;;;;;;;23.46;31.28;98872.41;5113846;28;1522;-73
2021/10/05 08:26:23;;;;;;;;;;;;;;;23.27;31.04;98868.34;5083846;28;1467;-71
2021/10/05 08:28:49;;;;;;;;;;;;;;;23.01;31.61;98874.94;5087114;28;1413;-70
2021/10/05 08:31:14;;;;;;;;;;;;;;;23.17;30.76;98866.50;5093481;28;952;-72
2021/10/05 08:33:40;;;;;;;;;;;;;;;22.77;31.56;98866.38;5086689;28;2333;-70
2021/10/05 08:36:07;;;;;;;;;;;;;;;22.33;32.27;98879.69;5083604;28;1614;-71
2021/10/05 08:38:33;;;;;;;;;;;;;;;22.29;32.29;98876.09;5100403;28;1639;-69
2021/10/05 08:47:08;;;;;;;;;;;;;;;22.96;31.02;98873.38;5160379;27;1292;-71
2021/10/05 08:49:34;;;;;;;;;;;;;;;22.71;31.18;98873.81;5104151;28;1201;-70
2021/10/05 08:51:59;;;;;;;;;;;;;;;22.54;31.54;98878.56;5093115;28;1716;-70
2021/10/05 08:54:25;;;;;;;;;;;;;;;22.60;31.11;98870.34;5098768;28;1660;-71
2021/10/05 08:58:37;;;;;;;;;;;;;;;22.52;31.37;98878.16;5092753;27;1085;-72
2021/10/05 09:01:07;;;;;;;;;;;;;;;22.44;31.43;98875.88;5093236;28;1169;-71
2021/10/05 09:03:32;;;;;;;;;;;;;;;22.30;31.50;98871.22;5127823;28;1596;-71
2021/10/05 09:07:16;;;;;;;;;;;;;;;22.53;31.25;98887.47;5092959;27;1283;-69
2021/10/05 09:09:54;;;;;;;;;;;;;;;22.61;30.97;98884.09;5131698;28;1089;-69
2021/10/05 09:13:01;;;;;;;;;;;;;;;22.64;30.94;98885.28;5113370;27;1196;-71
2021/10/05 09:15:28;;;;;;;;;;;;;;;22.66;31.14;98899.81;5113937;28;993;-82
2021/10/05 09:17:54;;;;;;;;;;;;;;;22.86;30.46;98891.38;5111073;28;958;-71
2021/10/05 09:21:22;;;;;;;;;;;;;;;22.64;30.57;98890.94;5105778;27;1377837;-71
2021/10/05 09:23:52;;;;;;;;;;;;;;;22.48;30.88;98897.25;5155059;27;993;-71
2021/10/05 09:26:17;;;;;;;;;;;;;;;22.47;31.13;98897.69;5154486;27;1546;-70
2021/10/05 09:28:42;;;;;;;;;;;;;;;22.56;30.97;98895.13;5154218;27;1877;-70
2021/10/05 09:31:08;;;;;;;;;;;;;;;22.62;30.83;98893.41;5137809;27;1784;-70
2021/10/05 09:33:34;;;;;;;;;;;;;;;22.58;30.84;98898.31;5093186;28;1608;-70
2021/10/05 09:38:16;;;;;;;;;;;;;;;22.33;31.25;98905.22;5093188;27;1208;-71
2021/10/05 09:43:19;;;;;;;;;;;;;;;22.51;30.83;98901.28;5134196;27;1191;-70
2021/10/05 09:45:44;;;;;;;;;;;;;;;22.62;30.71;98888.53;5134215;28;892;-70
2021/10/05 09:49:39;;;;;;;;;;;;;;;22.56;30.92;98883.78;5134233;27;1390;-73
2021/10/05 09:53:59;;;;;;;;;;;;;;;22.97;31.22;98891.22;5113565;27;1236;-68
2021/10/05 09:56:25;;;;;;;;;;;;;;;23.12;31.76;98893.34;5113970;28;898;-69
2021/10/05 09:58:50;;;;;;;;;;;;;;;22.58;32.84;98887.78;5145346;27;1224;-68
2021/10/05 10:01:17;;;;;;;;;;;;;;;22.83;32.87;98887.34;5252495;22;3462;-71
2021/10/05 10:03:43;;;;;;;;;;;;;;;23.11;32.79;98890.97;5111271;28;987;-73
2021/10/05 10:06:08;;;;;;;;;;;;;;;23.23;32.26;98898.84;5111218;28;1579;-77
2021/10/05 10:08:34;;;;;;;;;;;;;;;23.61;31.42;98901.31;5069837;28;1536;-74
2021/10/05 10:10:59;;;;;;;;;;;;;;;23.55;32.10;98897.41;5070812;28;1076;-74
2021/10/05 10:13:25;;;;;;;;;;;;;;;23.79;31.57;98890.44;5052257;28;2042;-71
2021/10/05 10:16:33;;;;;;;;;;;;;;;23.51;32.38;98890.97;5095014;27;1268;-70
2021/10/05 10:18:59;;;;;;;;;;;;;;;23.79;31.76;98890.44;5127584;28;1079;-73
2021/10/05 10:25:00;;;;;;;;;;;;;;;23.77;31.71;98890.03;5093311;28;1195;-71
2021/10/05 10:27:26;;;;;;;;;;;;;;;23.99;31.06;98887.56;5095560;28;963;-71
2021/10/05 10:29:53;;;;;;;;;;;;;;;23.79;31.91;98890.44;5091022;28;1096;-71
2021/10/05 10:32:18;;;;;;;;;;;;;;;24.27;30.92;98886.09;5090112;28;1169;-71
2021/10/05 10:34:44;;;;;;;;;;;;;;;24.58;30.02;98882.94;5090769;28;1902;-69
2021/10/05 10:37:11;;;;;;;;;;;;;;;24.20;30.92;98886.28;5070149;28;1057;-69
2021/10/05 10:39:37;;;;;;;;;;;;;;;24.34;30.44;98868.06;5070274;28;1038;-72
2021/10/05 10:42:06;;;;;;;;;;;;;;;24.39;30.52;98876.88;5070303;28;993;-74
2021/10/05 10:44:37;;;;;;;;;;;;;;;24.38;30.36;98886.66;5029765;28;1183;-69
2021/10/05 10:47:08;;;;;;;;;;;;;;;23.84;31.03;98877.75;4997506;28;1059;-68
2021/10/05 10:49:33;;;;;;;;;;;;;;;24.35;30.37;98875.38;5031005;28;1578;-71
2021/10/05 10:51:59;;;;;;;;;;;;;;;24.34;30.40;98877.38;5032197;28;937;-70
2021/10/05 10:57:12;;;;;;;;;;;;;;;24.18;30.48;98866.00;5321425;23;2136;-70
2021/10/05 10:59:39;;;;;;;;;;;;;;;24.37;30.29;98856.63;4983915;28;1753;-70
2021/10/05 11:02:05;;;;;;;;;;;;;;;24.58;29.77;98849.59;4933962;29;1592;-69
2021/10/05 11:04:31;;;;;;;;;;;;;;;24.53;30.25;98850.13;4919877;29;974;-68
2021/10/05 11:06:58;;;;;;;;;;;;;;;24.19;30.40;98864.78;4918072;29;1029;-69
2021/10/05 11:09:30;;;;;;;;;;;;;;;24.52;29.94;98867.66;4933436;29;1164;-76
2021/10/05 11:11:58;;;;;;;;;;;;;;;23.66;32.21;98869.59;4901482;29;1124;-79
2021/10/05 11:14:30;;;;;;;;;;;;;;;23.81;31.26;98865.19;4917611;29;1981;-68
2021/10/05 11:16:57;;;;;;;;;;;;;;;24.20;30.81;98869.22;4933328;29;1004;-68
2021/10/05 11:19:25;;;;;;;;;;;;;;;24.30;30.60;98864.50;4917283;29;957;-72
2021/10/05 11:21:51;;;;;;;;;;;;;;;23.73;31.40;98874.34;4927053;29;6973;-72
2021/10/05 11:24:16;;;;;;;;;;;;;;;23.77;31.65;98875.84;4894896;29;1073;-68
2021/10/05 11:26:43;;;;;;;;;;;;;;;23.86;31.53;98880.94;4888439;29;1263;-67
2021/10/05 11:29:08;;;;;;;;;;;;;;;24.06;30.87;98880.91;4883797;29;1436;-68
2021/10/05 11:31:41;;;;;;;;;;;;;;;23.77;31.19;98887.22;4917765;29;1595;-73
2021/10/05 11:34:06;;;;;;;;;;;;;;;23.80;31.13;98883.50;4939790;29;1919;-78
2021/10/05 11:36:31;;;;;;;;;;;;;;;23.84;31.35;98889.13;4925898;29;972;-77
2021/10/05 11:38:57;;;;;;;;;;;;;;;23.84;31.17;98884.22;4942417;29;917;-71
2021/10/05 11:41:22;;;;;;;;;;;;;;;23.34;32.09;98873.88;4943079;29;1003;-76
2021/10/05 11:43:49;;;;;;;;;;;;;;;23.84;31.14;98881.38;4941363;29;1210;-76
2021/10/05 11:46:16;;;;;;;;;;;;;;;23.77;31.16;98875.84;4905845;29;1129;-75
2021/10/05 11:48:42;;;;;;;;;;;;;;;23.64;31.31;98883.44;4920576;29;1044;-76
2021/10/05 11:51:08;;;;;;;;;;;;;;;23.78;31.22;98886.00;4921435;29;1372;-75
2021/10/05 11:53:34;;;;;;;;;;;;;;;23.45;31.61;98882.16;4920370;29;1245;-76
2021/10/05 11:56:03;;;;;;;;;;;;;;;23.75;31.22;98881.19;4921611;29;1918;-76
2021/10/05 11:58:38;;;;;;;;;;;;;;;23.98;30.68;98880.25;4920930;29;1053;-76
2021/10/05 12:01:11;;;;;;;;;;;;;;;23.24;31.83;98883.38;4921956;29;1039;-76
2021/10/05 12:03:36;;;;;;;;;;;;;;;24.07;30.84;98894.66;4919899;29;1162;-77
2021/10/05 12:06:02;;;;;;;;;;;;;;;23.68;31.36;98884.19;4921766;29;1047;-77
2021/10/05 12:08:28;;;;;;;;;;;;;;;23.83;30.99;98888.31;4888860;29;1038;-76
2021/10/05 12:10:54;;;;;;;;;;;;;;;23.40;31.50;98892.00;4920920;29;992;-76
2021/10/05 12:13:19;;;;;;;;;;;;;;;23.65;31.35;98885.84;4920201;29;1040;-77
2021/10/05 12:15:44;;;;;;;;;;;;;;;23.94;30.69;98887.28;4920047;29;1902;-77
2021/10/05 12:18:11;;;;;;;;;;;;;;;24.06;30.53;98881.69;4922185;29;938;-77
2021/10/05 12:20:37;;;;;;;;;;;;;;;23.61;31.36;98884.28;4898080;29;1037;-76
2021/10/05 12:23:06;;;;;;;;;;;;;;;23.67;31.41;98885.38;4940946;29;1217;-76
2021/10/05 12:25:31;;;;;;;;;;;;;;;23.75;30.86;98877.53;4923083;29;960;-77
2021/10/05 12:27:57;;;;;;;;;;;;;;;23.18;32.15;98879.47;4937502;29;1072;-76
2021/10/05 12:30:23;;;;;;;;;;;;;;;23.28;32.15;98884.13;4941254;29;1908;-77
2021/10/05 12:32:49;;;;;;;;;;;;;;;23.75;30.86;98889.69;4892615;29;1058;-77
2021/10/05 12:35:19;;;;;;;;;;;;;;;23.91;30.64;98886.91;4940868;29;1880;-77
2021/10/05 12:37:44;;;;;;;;;;;;;;;23.86;30.69;98887.41;4940235;29;1170;-77
2021/10/05 12:40:10;;;;;;;;;;;;;;;23.99;30.74;98887.56;4923823;29;950;-77
2021/10/05 12:42:39;;;;;;;;;;;;;;;24.17;30.03;98885.09;4941121;29;964;-76
2021/10/05 12:45:08;;;;;;;;;;;;;;;23.70;31.14;98893.06;4940795;29;970;-77
2021/10/05 12:47:34;;;;;;;;;;;;;;;23.69;30.96;98888.63;4941542;29;1027;-77
2021/10/05 12:49:59;;;;;;;;;;;;;;;23.42;31.19;98893.63;4940817;29;914;-77
2021/10/05 12:52:25;;;;;;;;;;;;;;;23.51;30.85;98902.34;4940925;29;763;-77
2021/10/05 12:54:50;;;;;;;;;;;;;;;23.50;30.99;98898.69;4940400;29;1974;-77
2021/10/05 12:57:15;;;;;;;;;;;;;;;23.65;30.73;98887.88;4941212;29;1111;-77
2021/10/05 12:59:50;;;;;;;;;;;;;;;23.27;31.63;98888.22;4940339;29;796;-77
2021/10/05 13:02:16;;;;;;;;;;;;;;;23.25;31.30;98889.88;4923459;29;834;-77
2021/10/05 13:04:41;;;;;;;;;;;;;;;23.86;30.66;98895.16;4906470;29;983;-77
2021/10/05 13:07:06;;;;;;;;;;;;;;;23.71;30.79;98891.00;4940610;29;696;-77
2021/10/05 13:09:32;;;;;;;;;;;;;;;23.40;30.89;98897.69;4940197;29;847;-77
2021/10/05 13:11:58;;;;;;;;;;;;;;;23.88;30.34;98893.50;4940754;29;759;-76
2021/10/05 13:14:23;;;;;;;;;;;;;;;24.02;29.91;98898.03;4923467;29;1899;-76
2021/10/05 13:16:48;;;;;;;;;;;;;;;23.63;30.50;98896.84;4940792;29;768;-77
2021/10/05 13:19:14;;;;;;;;;;;;;;;23.83;30.42;98891.16;4940307;29;771;-77
2021/10/05 13:21:40;;;;;;;;;;;;;;;23.82;30.47;98895.22;4940543;29;811;-77
2021/10/05 13:24:05;;;;;;;;;;;;;;;23.88;30.16;98899.16;4939674;29;799;-76
2021/10/05 13:26:31;;;;;;;;;;;;;;;24.22;29.40;98898.00;4940550;29;919;-77
2021/10/05 13:28:57;;;;;;;;;;;;;;;23.84;30.13;98898.44;4940272;29;783;-77
2021/10/05 13:31:22;;;;;;;;;;;;;;;23.64;30.25;98912.66;4941001;29;740;-77
2021/10/05 13:33:48;;;;;;;;;;;;;;;23.90;30.13;98901.56;4922894;29;685;-76
2021/10/05 13:36:13;;;;;;;;;;;;;;;23.58;30.32;98922.09;4940736;29;1969;-77
2021/10/05 13:38:39;;;;;;;;;;;;;;;22.93;31.30;98913.19;4939139;29;732;-77
2021/10/05 13:41:08;;;;;;;;;;;;;;;23.34;30.85;98922.16;4940767;29;696;-77
2021/10/05 13:43:34;;;;;;;;;;;;;;;23.33;30.53;98914.88;4939392;29;861;-77
2021/10/05 13:45:59;;;;;;;;;;;;;;;23.61;29.92;98912.69;4940774;29;752;-77
2021/10/05 13:48:24;;;;;;;;;;;;;;;23.37;30.02;98915.59;4939500;29;732;-77
2021/10/05 13:50:50;;;;;;;;;;;;;;;23.08;30.51;98906.81;4939492;29;893;-76
2021/10/05 13:53:15;;;;;;;;;;;;;;;22.96;30.81;98918.00;4939894;29;755;-76
2021/10/05 13:56:15;;;;;;;;;;;;;;;23.00;31.13;98913.03;4939276;29;1903;-76
2021/10/05 13:58:40;;;;;;;;;;;;;;;22.52;32.02;98911.41;4901255;29;776;-76
2021/10/05 14:01:06;;;;;;;;;;;;;;;22.96;31.31;98912.31;4902099;29;783;-77